Terminal Aerodrome Forecast
Issued by NWS Charleston, WV

Current Version | Previous Version | Text Only | Print | Product List | Glossary Off
Versions: 1 2 3 4 5 6 7 8 9 10 11 12 13 14 15 16 17 18 19 20 21

000
FTUS41 KRLX 250800 AAA
TAFBKW
TAF AMD
KBKW 250816Z 2508/2606 14005KT P6SM SCT020
     FM251300 12007KT P6SM SCT025
     FM251500 13008KT P6SM FEW035
     FM252300 13005KT P6SM SKC=

USA.gov is the U.S. government's official web portal to all federal, state and local government web resources and services.